sensor_id;sensor_type;location;lat;lon;timestamp;P1;durP1;ratioP1;P2;durP2;ratioP2
59273;SDS011;45044;41.572;24.730;2023-05-16T00:01:45;11.27;;;7.03;;
59273;SDS011;45044;41.572;24.730;2023-05-16T00:04:12;11.05;;;7.28;;
59273;SDS011;45044;41.572;24.730;2023-05-16T00:06:39;12.63;;;8.00;;
59273;SDS011;45044;41.572;24.730;2023-05-16T00:09:06;13.82;;;8.05;;
59273;SDS011;45044;41.572;24.730;2023-05-16T00:11:32;11.77;;;7.78;;
59273;SDS011;45044;41.572;24.730;2023-05-16T00:13:59;13.48;;;8.57;;
59273;SDS011;45044;41.572;24.730;2023-05-16T00:16:27;15.63;;;9.05;;
59273;SDS011;45044;41.572;24.730;2023-05-16T00:18:55;13.35;;;9.20;;
59273;SDS011;45044;41.572;24.730;2023-05-16T00:21:26;13.68;;;8.40;;
59273;SDS011;45044;41.572;24.730;2023-05-16T00:23:53;11.70;;;7.43;;
59273;SDS011;45044;41.572;24.730;2023-05-16T00:26:20;13.07;;;9.02;;
59273;SDS011;45044;41.572;24.730;2023-05-16T00:28:47;16.05;;;8.68;;
59273;SDS011;45044;41.572;24.730;2023-05-16T00:31:14;14.90;;;7.82;;
59273;SDS011;45044;41.572;24.730;2023-05-16T00:33:41;13.30;;;9.05;;
59273;SDS011;45044;41.572;24.730;2023-05-16T00:36:07;12.70;;;7.57;;
59273;SDS011;45044;41.572;24.730;2023-05-16T00:38:34;14.00;;;7.05;;
59273;SDS011;45044;41.572;24.730;2023-05-16T00:41:01;13.25;;;6.32;;
59273;SDS011;45044;41.572;24.730;2023-05-16T00:43:28;12.50;;;6.70;;
59273;SDS011;45044;41.572;24.730;2023-05-16T00:45:54;12.35;;;7.45;;
59273;SDS011;45044;41.572;24.730;2023-05-16T00:48:23;10.25;;;6.45;;
59273;SDS011;45044;41.572;24.730;2023-05-16T00:50:50;11.95;;;6.97;;
59273;SDS011;45044;41.572;24.730;2023-05-16T00:53:18;11.75;;;6.40;;
59273;SDS011;45044;41.572;24.730;2023-05-16T00:55:45;12.05;;;7.32;;
59273;SDS011;45044;41.572;24.730;2023-05-16T00:58:12;15.50;;;8.52;;
59273;SDS011;45044;41.572;24.730;2023-05-16T01:00:39;14.65;;;7.78;;
59273;SDS011;45044;41.572;24.730;2023-05-16T01:03:07;14.20;;;7.90;;
59273;SDS011;45044;41.572;24.730;2023-05-16T01:05:34;14.57;;;7.93;;
59273;SDS011;45044;41.572;24.730;2023-05-16T01:08:00;14.05;;;7.32;;
59273;SDS011;45044;41.572;24.730;2023-05-16T01:10:30;11.85;;;6.78;;
59273;SDS011;45044;41.572;24.730;2023-05-16T01:16:12;10.60;;;6.13;;
59273;SDS011;45044;41.572;24.730;2023-05-16T01:18:47;13.68;;;7.85;;
59273;SDS011;45044;41.572;24.730;2023-05-16T01:26:48;10.80;;;5.88;;
59273;SDS011;45044;41.572;24.730;2023-05-16T01:29:16;11.63;;;5.72;;
59273;SDS011;45044;41.572;24.730;2023-05-16T01:31:44;12.07;;;6.60;;
59273;SDS011;45044;41.572;24.730;2023-05-16T01:34:11;11.40;;;6.07;;
59273;SDS011;45044;41.572;24.730;2023-05-16T01:42:18;11.82;;;5.93;;
59273;SDS011;45044;41.572;24.730;2023-05-16T01:44:55;14.25;;;6.55;;
59273;SDS011;45044;41.572;24.730;2023-05-16T01:50:17;10.77;;;5.90;;
59273;SDS011;45044;41.572;24.730;2023-05-16T01:52:50;11.18;;;5.55;;
59273;SDS011;45044;41.572;24.730;2023-05-16T01:58:00;9.82;;;5.85;;
59273;SDS011;45044;41.572;24.730;2023-05-16T02:00:29;10.02;;;5.20;;
59273;SDS011;45044;41.572;24.730;2023-05-16T02:02:57;10.95;;;5.28;;
59273;SDS011;45044;41.572;24.730;2023-05-16T02:05:23;9.80;;;5.30;;
59273;SDS011;45044;41.572;24.730;2023-05-16T02:07:51;13.07;;;6.30;;
59273;SDS011;45044;41.572;24.730;2023-05-16T02:10:18;11.70;;;6.13;;
59273;SDS011;45044;41.572;24.730;2023-05-16T02:12:45;12.18;;;5.15;;
59273;SDS011;45044;41.572;24.730;2023-05-16T02:15:12;14.07;;;5.93;;
59273;SDS011;45044;41.572;24.730;2023-05-16T02:17:40;13.25;;;5.78;;
59273;SDS011;45044;41.572;24.730;2023-05-16T02:20:07;11.75;;;5.25;;
59273;SDS011;45044;41.572;24.730;2023-05-16T02:22:37;13.43;;;5.78;;
59273;SDS011;45044;41.572;24.730;2023-05-16T02:25:05;9.07;;;4.60;;
59273;SDS011;45044;41.572;24.730;2023-05-16T02:27:32;9.77;;;5.28;;
59273;SDS011;45044;41.572;24.730;2023-05-16T02:29:58;9.10;;;5.47;;
59273;SDS011;45044;41.572;24.730;2023-05-16T02:32:25;9.27;;;4.78;;
59273;SDS011;45044;41.572;24.730;2023-05-16T02:34:52;11.75;;;5.15;;
59273;SDS011;45044;41.572;24.730;2023-05-16T02:37:19;12.65;;;4.60;;
59273;SDS011;45044;41.572;24.730;2023-05-16T02:39:45;11.57;;;5.22;;
59273;SDS011;45044;41.572;24.730;2023-05-16T02:42:12;11.65;;;5.78;;
59273;SDS011;45044;41.572;24.730;2023-05-16T02:44:39;10.80;;;4.90;;
59273;SDS011;45044;41.572;24.730;2023-05-16T02:47:05;9.80;;;5.00;;
59273;SDS011;45044;41.572;24.730;2023-05-16T02:49:34;10.82;;;4.93;;
59273;SDS011;45044;41.572;24.730;2023-05-16T02:52:01;10.20;;;5.65;;
59273;SDS011;45044;41.572;24.730;2023-05-16T02:54:27;12.77;;;5.25;;
59273;SDS011;45044;41.572;24.730;2023-05-16T02:56:54;11.70;;;5.82;;
59273;SDS011;45044;41.572;24.730;2023-05-16T02:59:21;11.23;;;5.43;;
59273;SDS011;45044;41.572;24.730;2023-05-16T03:01:47;11.00;;;5.13;;
59273;SDS011;45044;41.572;24.730;2023-05-16T03:04:14;12.57;;;5.28;;
59273;SDS011;45044;41.572;24.730;2023-05-16T03:06:42;10.40;;;4.72;;
59273;SDS011;45044;41.572;24.730;2023-05-16T03:09:08;8.95;;;4.88;;
59273;SDS011;45044;41.572;24.730;2023-05-16T03:11:35;11.60;;;5.68;;
59273;SDS011;45044;41.572;24.730;2023-05-16T03:14:02;9.65;;;5.15;;
59273;SDS011;45044;41.572;24.730;2023-05-16T03:16:29;8.40;;;4.75;;
59273;SDS011;45044;41.572;24.730;2023-05-16T03:18:56;11.05;;;4.80;;
59273;SDS011;45044;41.572;24.730;2023-05-16T03:21:23;12.10;;;5.47;;
59273;SDS011;45044;41.572;24.730;2023-05-16T03:23:49;14.40;;;5.10;;
59273;SDS011;45044;41.572;24.730;2023-05-16T03:26:16;10.40;;;4.72;;
59273;SDS011;45044;41.572;24.730;2023-05-16T03:28:43;10.80;;;5.70;;
59273;SDS011;45044;41.572;24.730;2023-05-16T03:31:09;11.10;;;5.38;;
59273;SDS011;45044;41.572;24.730;2023-05-16T03:33:36;14.02;;;5.93;;
59273;SDS011;45044;41.572;24.730;2023-05-16T03:36:03;12.50;;;6.50;;
59273;SDS011;45044;41.572;24.730;2023-05-16T03:38:30;10.60;;;6.68;;
59273;SDS011;45044;41.572;24.730;2023-05-16T03:40:57;15.75;;;7.45;;
59273;SDS011;45044;41.572;24.730;2023-05-16T03:43:24;15.05;;;7.65;;
59273;SDS011;45044;41.572;24.730;2023-05-16T03:45:50;15.43;;;10.65;;
59273;SDS011;45044;41.572;24.730;2023-05-16T03:48:17;12.90;;;9.35;;
59273;SDS011;45044;41.572;24.730;2023-05-16T03:50:44;16.25;;;10.52;;
59273;SDS011;45044;41.572;24.730;2023-05-16T03:53:11;14.65;;;9.65;;
59273;SDS011;45044;41.572;24.730;2023-05-16T03:55:37;13.90;;;10.15;;
59273;SDS011;45044;41.572;24.730;2023-05-16T03:58:04;19.15;;;14.43;;
59273;SDS011;45044;41.572;24.730;2023-05-16T04:00:31;23.38;;;14.73;;
59273;SDS011;45044;41.572;24.730;2023-05-16T04:03:02;23.13;;;15.65;;
59273;SDS011;45044;41.572;24.730;2023-05-16T04:05:29;16.25;;;12.55;;
59273;SDS011;45044;41.572;24.730;2023-05-16T04:07:56;19.20;;;12.93;;
59273;SDS011;45044;41.572;24.730;2023-05-16T04:10:23;19.20;;;13.00;;
59273;SDS011;45044;41.572;24.730;2023-05-16T04:12:50;22.35;;;14.93;;
59273;SDS011;45044;41.572;24.730;2023-05-16T04:15:16;18.80;;;14.27;;
59273;SDS011;45044;41.572;24.730;2023-05-16T04:17:43;21.27;;;14.70;;
59273;SDS011;45044;41.572;24.730;2023-05-16T04:20:10;21.63;;;14.93;;
59273;SDS011;45044;41.572;24.730;2023-05-16T04:22:37;23.45;;;16.25;;
59273;SDS011;45044;41.572;24.730;2023-05-16T04:25:04;25.25;;;15.85;;
59273;SDS011;45044;41.572;24.730;2023-05-16T04:27:31;21.50;;;15.73;;
59273;SDS011;45044;41.572;24.730;2023-05-16T04:29:58;22.02;;;12.98;;
59273;SDS011;45044;41.572;24.730;2023-05-16T04:32:25;17.83;;;10.02;;
59273;SDS011;45044;41.572;24.730;2023-05-16T04:34:54;17.20;;;9.35;;
59273;SDS011;45044;41.572;24.730;2023-05-16T04:37:20;18.40;;;10.48;;
59273;SDS011;45044;41.572;24.730;2023-05-16T04:39:47;17.95;;;10.30;;
59273;SDS011;45044;41.572;24.730;2023-05-16T04:42:14;16.80;;;9.50;;
59273;SDS011;45044;41.572;24.730;2023-05-16T04:44:41;15.27;;;8.43;;
59273;SDS011;45044;41.572;24.730;2023-05-16T04:47:09;15.35;;;10.32;;
59273;SDS011;45044;41.572;24.730;2023-05-16T04:49:36;20.15;;;10.30;;
59273;SDS011;45044;41.572;24.730;2023-05-16T04:52:03;20.33;;;11.18;;
59273;SDS011;45044;41.572;24.730;2023-05-16T04:54:31;18.65;;;11.85;;
59273;SDS011;45044;41.572;24.730;2023-05-16T04:56:58;17.05;;;9.52;;
59273;SDS011;45044;41.572;24.730;2023-05-16T04:59:24;18.95;;;10.35;;
59273;SDS011;45044;41.572;24.730;2023-05-16T05:01:51;17.65;;;11.23;;
59273;SDS011;45044;41.572;24.730;2023-05-16T05:04:18;17.23;;;10.10;;
59273;SDS011;45044;41.572;24.730;2023-05-16T05:06:45;22.20;;;11.77;;
59273;SDS011;45044;41.572;24.730;2023-05-16T05:09:11;19.20;;;10.98;;
59273;SDS011;45044;41.572;24.730;2023-05-16T05:11:38;20.08;;;11.90;;
59273;SDS011;45044;41.572;24.730;2023-05-16T05:14:05;15.80;;;9.80;;
59273;SDS011;45044;41.572;24.730;2023-05-16T05:16:32;19.38;;;10.30;;
59273;SDS011;45044;41.572;24.730;2023-05-16T05:19:02;24.52;;;12.35;;
59273;SDS011;45044;41.572;24.730;2023-05-16T05:21:29;16.77;;;11.25;;
59273;SDS011;45044;41.572;24.730;2023-05-16T05:23:56;19.77;;;13.40;;
59273;SDS011;45044;41.572;24.730;2023-05-16T05:26:23;22.38;;;15.18;;
59273;SDS011;45044;41.572;24.730;2023-05-16T05:28:51;24.42;;;14.45;;
59273;SDS011;45044;41.572;24.730;2023-05-16T05:31:32;24.15;;;12.10;;
59273;SDS011;45044;41.572;24.730;2023-05-16T05:34:01;22.27;;;11.77;;
59273;SDS011;45044;41.572;24.730;2023-05-16T05:36:28;20.48;;;10.70;;
59273;SDS011;45044;41.572;24.730;2023-05-16T05:38:56;21.30;;;13.20;;
59273;SDS011;45044;41.572;24.730;2023-05-16T05:41:23;24.02;;;14.48;;
59273;SDS011;45044;41.572;24.730;2023-05-16T05:43:49;25.17;;;14.95;;
59273;SDS011;45044;41.572;24.730;2023-05-16T05:46:16;23.08;;;14.02;;
59273;SDS011;45044;41.572;24.730;2023-05-16T05:48:43;25.85;;;15.13;;
59273;SDS011;45044;41.572;24.730;2023-05-16T05:51:10;22.70;;;14.50;;
59273;SDS011;45044;41.572;24.730;2023-05-16T05:53:39;24.27;;;15.52;;
59273;SDS011;45044;41.572;24.730;2023-05-16T05:56:06;24.67;;;14.85;;
59273;SDS011;45044;41.572;24.730;2023-05-16T05:58:33;20.30;;;13.32;;
59273;SDS011;45044;41.572;24.730;2023-05-16T06:01:01;24.38;;;14.52;;
59273;SDS011;45044;41.572;24.730;2023-05-16T06:03:28;23.48;;;13.45;;
59273;SDS011;45044;41.572;24.730;2023-05-16T06:05:55;25.45;;;16.08;;
59273;SDS011;45044;41.572;24.730;2023-05-16T06:08:22;24.00;;;16.42;;
59273;SDS011;45044;41.572;24.730;2023-05-16T06:10:48;20.60;;;12.65;;
59273;SDS011;45044;41.572;24.730;2023-05-16T06:13:15;20.80;;;11.70;;
59273;SDS011;45044;41.572;24.730;2023-05-16T06:15:42;19.33;;;12.93;;
59273;SDS011;45044;41.572;24.730;2023-05-16T06:18:08;24.17;;;13.60;;
59273;SDS011;45044;41.572;24.730;2023-05-16T06:20:35;18.65;;;12.57;;
59273;SDS011;45044;41.572;24.730;2023-05-16T06:23:02;16.92;;;11.23;;
59273;SDS011;45044;41.572;24.730;2023-05-16T06:25:29;20.15;;;13.98;;
59273;SDS011;45044;41.572;24.730;2023-05-16T06:27:55;16.50;;;10.82;;
59273;SDS011;45044;41.572;24.730;2023-05-16T06:30:22;15.68;;;7.72;;
59273;SDS011;45044;41.572;24.730;2023-05-16T06:32:49;16.80;;;7.95;;
59273;SDS011;45044;41.572;24.730;2023-05-16T06:35:15;14.15;;;7.80;;
59273;SDS011;45044;41.572;24.730;2023-05-16T06:37:42;9.80;;;5.28;;
59273;SDS011;45044;41.572;24.730;2023-05-16T06:40:09;12.55;;;6.32;;
59273;SDS011;45044;41.572;24.730;2023-05-16T06:42:36;14.48;;;7.30;;
59273;SDS011;45044;41.572;24.730;2023-05-16T06:45:03;17.05;;;7.95;;
59273;SDS011;45044;41.572;24.730;2023-05-16T06:47:31;17.25;;;8.40;;
59273;SDS011;45044;41.572;24.730;2023-05-16T06:49:57;14.98;;;7.93;;
59273;SDS011;45044;41.572;24.730;2023-05-16T06:52:24;18.02;;;7.78;;
59273;SDS011;45044;41.572;24.730;2023-05-16T06:54:51;17.92;;;8.32;;
59273;SDS011;45044;41.572;24.730;2023-05-16T06:57:18;21.83;;;8.85;;
59273;SDS011;45044;41.572;24.730;2023-05-16T06:59:45;17.98;;;9.32;;
59273;SDS011;45044;41.572;24.730;2023-05-16T07:02:12;21.23;;;9.88;;
59273;SDS011;45044;41.572;24.730;2023-05-16T07:04:38;17.98;;;8.85;;
59273;SDS011;45044;41.572;24.730;2023-05-16T07:07:05;15.85;;;9.32;;
59273;SDS011;45044;41.572;24.730;2023-05-16T07:09:34;13.65;;;6.68;;
59273;SDS011;45044;41.572;24.730;2023-05-16T07:12:01;12.05;;;5.93;;
59273;SDS011;45044;41.572;24.730;2023-05-16T07:14:27;16.48;;;7.38;;
59273;SDS011;45044;41.572;24.730;2023-05-16T07:16:54;14.43;;;6.60;;
59273;SDS011;45044;41.572;24.730;2023-05-16T07:19:21;17.38;;;7.55;;
59273;SDS011;45044;41.572;24.730;2023-05-16T07:21:48;17.58;;;9.25;;
59273;SDS011;45044;41.572;24.730;2023-05-16T07:24:15;16.00;;;8.07;;
59273;SDS011;45044;41.572;24.730;2023-05-16T07:26:41;14.50;;;8.15;;
59273;SDS011;45044;41.572;24.730;2023-05-16T07:29:09;15.65;;;8.68;;
59273;SDS011;45044;41.572;24.730;2023-05-16T07:31:36;14.55;;;7.97;;
59273;SDS011;45044;41.572;24.730;2023-05-16T07:34:02;16.23;;;9.10;;
59273;SDS011;45044;41.572;24.730;2023-05-16T07:36:29;17.20;;;7.93;;
59273;SDS011;45044;41.572;24.730;2023-05-16T07:38:56;13.43;;;5.45;;
59273;SDS011;45044;41.572;24.730;2023-05-16T07:41:23;15.02;;;7.57;;
59273;SDS011;45044;41.572;24.730;2023-05-16T07:43:50;12.90;;;6.20;;
59273;SDS011;45044;41.572;24.730;2023-05-16T07:46:17;13.82;;;5.75;;
59273;SDS011;45044;41.572;24.730;2023-05-16T07:48:44;11.88;;;5.55;;
59273;SDS011;45044;41.572;24.730;2023-05-16T07:51:11;16.02;;;7.03;;
59273;SDS011;45044;41.572;24.730;2023-05-16T07:53:37;12.48;;;4.43;;
59273;SDS011;45044;41.572;24.730;2023-05-16T07:56:04;9.20;;;3.03;;
59273;SDS011;45044;41.572;24.730;2023-05-16T07:58:32;10.68;;;2.53;;
59273;SDS011;45044;41.572;24.730;2023-05-16T08:00:59;9.85;;;4.00;;
59273;SDS011;45044;41.572;24.730;2023-05-16T08:03:26;13.02;;;3.42;;
59273;SDS011;45044;41.572;24.730;2023-05-16T08:05:53;11.70;;;3.38;;
59273;SDS011;45044;41.572;24.730;2023-05-16T08:08:20;10.25;;;3.45;;
59273;SDS011;45044;41.572;24.730;2023-05-16T08:10:46;7.13;;;3.60;;
59273;SDS011;45044;41.572;24.730;2023-05-16T08:13:13;11.05;;;4.15;;
59273;SDS011;45044;41.572;24.730;2023-05-16T08:15:40;11.38;;;3.80;;
59273;SDS011;45044;41.572;24.730;2023-05-16T08:18:11;10.68;;;4.07;;
59273;SDS011;45044;41.572;24.730;2023-05-16T08:20:40;12.68;;;5.55;;
59273;SDS011;45044;41.572;24.730;2023-05-16T08:23:07;12.32;;;5.43;;
59273;SDS011;45044;41.572;24.730;2023-05-16T08:25:34;11.63;;;3.95;;
59273;SDS011;45044;41.572;24.730;2023-05-16T08:28:01;11.75;;;4.22;;
59273;SDS011;45044;41.572;24.730;2023-05-16T08:30:28;12.20;;;4.22;;
59273;SDS011;45044;41.572;24.730;2023-05-16T08:32:55;11.23;;;3.67;;
59273;SDS011;45044;41.572;24.730;2023-05-16T08:35:22;9.95;;;3.63;;
59273;SDS011;45044;41.572;24.730;2023-05-16T08:37:49;10.57;;;3.50;;
59273;SDS011;45044;41.572;24.730;2023-05-16T08:40:16;10.45;;;3.90;;
59273;SDS011;45044;41.572;24.730;2023-05-16T08:42:44;10.00;;;3.92;;
59273;SDS011;45044;41.572;24.730;2023-05-16T08:45:11;8.50;;;3.80;;
59273;SDS011;45044;41.572;24.730;2023-05-16T08:47:39;9.57;;;4.00;;
59273;SDS011;45044;41.572;24.730;2023-05-16T08:50:08;15.27;;;4.20;;
59273;SDS011;45044;41.572;24.730;2023-05-16T08:52:36;9.38;;;3.70;;
59273;SDS011;45044;41.572;24.730;2023-05-16T08:55:05;11.10;;;4.03;;
59273;SDS011;45044;41.572;24.730;2023-05-16T08:57:37;9.32;;;3.70;;
59273;SDS011;45044;41.572;24.730;2023-05-16T09:00:07;10.40;;;3.63;;
59273;SDS011;45044;41.572;24.730;2023-05-16T09:02:39;8.48;;;3.72;;
59273;SDS011;45044;41.572;24.730;2023-05-16T09:05:08;11.10;;;3.45;;
59273;SDS011;45044;41.572;24.730;2023-05-16T09:07:38;9.93;;;3.90;;
59273;SDS011;45044;41.572;24.730;2023-05-16T09:10:06;9.10;;;4.13;;
59273;SDS011;45044;41.572;24.730;2023-05-16T09:12:33;14.82;;;3.90;;
59273;SDS011;45044;41.572;24.730;2023-05-16T09:15:01;10.65;;;3.70;;
59273;SDS011;45044;41.572;24.730;2023-05-16T09:17:42;11.88;;;4.00;;
59273;SDS011;45044;41.572;24.730;2023-05-16T09:20:16;8.60;;;3.45;;
59273;SDS011;45044;41.572;24.730;2023-05-16T09:22:53;10.32;;;3.67;;
59273;SDS011;45044;41.572;24.730;2023-05-16T09:25:23;9.57;;;3.92;;
59273;SDS011;45044;41.572;24.730;2023-05-16T09:27:54;9.20;;;3.30;;
59273;SDS011;45044;41.572;24.730;2023-05-16T09:30:33;9.68;;;3.25;;
59273;SDS011;45044;41.572;24.730;2023-05-16T09:33:00;10.45;;;3.25;;
59273;SDS011;45044;41.572;24.730;2023-05-16T09:35:28;10.05;;;4.00;;
59273;SDS011;45044;41.572;24.730;2023-05-16T09:38:13;9.02;;;3.72;;
59273;SDS011;45044;41.572;24.730;2023-05-16T09:40:42;7.97;;;3.28;;
59273;SDS011;45044;41.572;24.730;2023-05-16T09:43:09;9.75;;;3.95;;
59273;SDS011;45044;41.572;24.730;2023-05-16T09:45:44;10.57;;;4.43;;
59273;SDS011;45044;41.572;24.730;2023-05-16T09:48:13;11.15;;;3.55;;
59273;SDS011;45044;41.572;24.730;2023-05-16T09:50:45;9.32;;;3.38;;
59273;SDS011;45044;41.572;24.730;2023-05-16T09:53:14;11.23;;;3.50;;
59273;SDS011;45044;41.572;24.730;2023-05-16T09:55:41;7.47;;;3.30;;
59273;SDS011;45044;41.572;24.730;2023-05-16T09:58:08;8.68;;;3.80;;
59273;SDS011;45044;41.572;24.730;2023-05-16T10:00:35;8.80;;;3.38;;
59273;SDS011;45044;41.572;24.730;2023-05-16T10:03:03;8.65;;;3.97;;
59273;SDS011;45044;41.572;24.730;2023-05-16T10:05:31;9.75;;;3.45;;
59273;SDS011;45044;41.572;24.730;2023-05-16T10:07:59;10.88;;;3.60;;
59273;SDS011;45044;41.572;24.730;2023-05-16T10:10:28;10.30;;;3.78;;
59273;SDS011;45044;41.572;24.730;2023-05-16T10:12:57;9.63;;;3.17;;
59273;SDS011;45044;41.572;24.730;2023-05-16T10:15:26;12.50;;;3.72;;
59273;SDS011;45044;41.572;24.730;2023-05-16T10:17:55;9.60;;;3.13;;
59273;SDS011;45044;41.572;24.730;2023-05-16T10:20:25;11.45;;;3.30;;
59273;SDS011;45044;41.572;24.730;2023-05-16T10:22:54;8.82;;;3.33;;
59273;SDS011;45044;41.572;24.730;2023-05-16T10:27:55;11.20;;;3.75;;
59273;SDS011;45044;41.572;24.730;2023-05-16T10:30:22;10.52;;;3.67;;
59273;SDS011;45044;41.572;24.730;2023-05-16T10:32:48;9.50;;;3.30;;
59273;SDS011;45044;41.572;24.730;2023-05-16T10:35:17;8.70;;;3.25;;
59273;SDS011;45044;41.572;24.730;2023-05-16T10:37:45;10.57;;;3.03;;
59273;SDS011;45044;41.572;24.730;2023-05-16T10:40:16;7.90;;;3.65;;
59273;SDS011;45044;41.572;24.730;2023-05-16T10:42:57;13.02;;;3.70;;
59273;SDS011;45044;41.572;24.730;2023-05-16T10:45:25;8.15;;;3.53;;
59273;SDS011;45044;41.572;24.730;2023-05-16T10:48:01;9.57;;;3.83;;
59273;SDS011;45044;41.572;24.730;2023-05-16T10:53:17;9.00;;;3.10;;
59273;SDS011;45044;41.572;24.730;2023-05-16T11:01:19;13.70;;;3.88;;
59273;SDS011;45044;41.572;24.730;2023-05-16T11:11:38;11.05;;;3.75;;
59273;SDS011;45044;41.572;24.730;2023-05-16T11:17:37;8.02;;;3.80;;
59273;SDS011;45044;41.572;24.730;2023-05-16T11:19:48;11.82;;;3.80;;
59273;SDS011;45044;41.572;24.730;2023-05-16T11:22:32;9.70;;;3.28;;
59273;SDS011;45044;41.572;24.730;2023-05-16T11:25:07;10.00;;;3.22;;
59273;SDS011;45044;41.572;24.730;2023-05-16T11:27:41;8.63;;;2.55;;
59273;SDS011;45044;41.572;24.730;2023-05-16T11:30:13;9.80;;;2.85;;
59273;SDS011;45044;41.572;24.730;2023-05-16T11:32:44;6.80;;;3.22;;
59273;SDS011;45044;41.572;24.730;2023-05-16T11:35:13;10.73;;;3.25;;
59273;SDS011;45044;41.572;24.730;2023-05-16T11:37:42;9.75;;;2.88;;
59273;SDS011;45044;41.572;24.730;2023-05-16T11:40:11;7.95;;;3.30;;
59273;SDS011;45044;41.572;24.730;2023-05-16T11:42:39;9.40;;;3.20;;
59273;SDS011;45044;41.572;24.730;2023-05-16T11:45:18;10.57;;;3.08;;
59273;SDS011;45044;41.572;24.730;2023-05-16T11:47:51;10.70;;;3.58;;
59273;SDS011;45044;41.572;24.730;2023-05-16T11:50:19;12.85;;;3.95;;
59273;SDS011;45044;41.572;24.730;2023-05-16T11:52:48;10.70;;;3.70;;
59273;SDS011;45044;41.572;24.730;2023-05-16T11:55:20;11.45;;;3.80;;
59273;SDS011;45044;41.572;24.730;2023-05-16T11:58:06;11.48;;;3.97;;
59273;SDS011;45044;41.572;24.730;2023-05-16T12:00:33;11.70;;;3.72;;
59273;SDS011;45044;41.572;24.730;2023-05-16T12:03:01;12.27;;;4.22;;
59273;SDS011;45044;41.572;24.730;2023-05-16T12:05:31;10.43;;;3.45;;
59273;SDS011;45044;41.572;24.730;2023-05-16T12:08:00;11.60;;;4.78;;
59273;SDS011;45044;41.572;24.730;2023-05-16T12:10:30;10.52;;;4.32;;
59273;SDS011;45044;41.572;24.730;2023-05-16T12:12:56;9.98;;;4.07;;
59273;SDS011;45044;41.572;24.730;2023-05-16T12:15:23;13.40;;;4.22;;
59273;SDS011;45044;41.572;24.730;2023-05-16T12:17:51;11.23;;;3.17;;
59273;SDS011;45044;41.572;24.730;2023-05-16T12:20:18;11.77;;;4.00;;
59273;SDS011;45044;41.572;24.730;2023-05-16T12:22:45;11.48;;;3.67;;
59273;SDS011;45044;41.572;24.730;2023-05-16T12:27:51;9.73;;;4.20;;
59273;SDS011;45044;41.572;24.730;2023-05-16T12:30:20;9.70;;;3.85;;
59273;SDS011;45044;41.572;24.730;2023-05-16T12:32:58;11.38;;;4.45;;
59273;SDS011;45044;41.572;24.730;2023-05-16T12:35:32;9.18;;;3.88;;
59273;SDS011;45044;41.572;24.730;2023-05-16T12:38:03;12.30;;;5.03;;
59273;SDS011;45044;41.572;24.730;2023-05-16T12:40:31;10.35;;;4.57;;
59273;SDS011;45044;41.572;24.730;2023-05-16T12:42:58;11.48;;;4.45;;
59273;SDS011;45044;41.572;24.730;2023-05-16T12:45:27;11.10;;;4.57;;
59273;SDS011;45044;41.572;24.730;2023-05-16T12:47:54;10.45;;;4.10;;
59273;SDS011;45044;41.572;24.730;2023-05-16T12:50:21;13.20;;;4.47;;
59273;SDS011;45044;41.572;24.730;2023-05-16T12:52:52;11.35;;;4.07;;
59273;SDS011;45044;41.572;24.730;2023-05-16T12:55:20;9.35;;;4.07;;
59273;SDS011;45044;41.572;24.730;2023-05-16T12:57:48;12.63;;;5.07;;
59273;SDS011;45044;41.572;24.730;2023-05-16T13:00:17;8.57;;;3.58;;
59273;SDS011;45044;41.572;24.730;2023-05-16T13:02:46;11.25;;;3.63;;
59273;SDS011;45044;41.572;24.730;2023-05-16T13:05:14;10.55;;;3.78;;
59273;SDS011;45044;41.572;24.730;2023-05-16T13:07:41;11.07;;;3.60;;
59273;SDS011;45044;41.572;24.730;2023-05-16T13:10:08;7.32;;;3.58;;
59273;SDS011;45044;41.572;24.730;2023-05-16T13:12:43;12.15;;;4.15;;
59273;SDS011;45044;41.572;24.730;2023-05-16T13:15:10;12.88;;;3.95;;
59273;SDS011;45044;41.572;24.730;2023-05-16T13:17:40;11.23;;;3.85;;
59273;SDS011;45044;41.572;24.730;2023-05-16T13:20:09;10.13;;;3.92;;
59273;SDS011;45044;41.572;24.730;2023-05-16T13:22:40;9.57;;;3.78;;
59273;SDS011;45044;41.572;24.730;2023-05-16T13:25:08;15.68;;;4.03;;
59273;SDS011;45044;41.572;24.730;2023-05-16T13:27:36;11.57;;;3.72;;
59273;SDS011;45044;41.572;24.730;2023-05-16T13:30:03;11.70;;;4.20;;
59273;SDS011;45044;41.572;24.730;2023-05-16T13:32:30;9.27;;;4.10;;
59273;SDS011;45044;41.572;24.730;2023-05-16T13:34:57;9.85;;;4.15;;
59273;SDS011;45044;41.572;24.730;2023-05-16T13:37:23;14.40;;;4.38;;
59273;SDS011;45044;41.572;24.730;2023-05-16T13:39:50;12.13;;;4.13;;
59273;SDS011;45044;41.572;24.730;2023-05-16T13:42:20;11.15;;;3.90;;
59273;SDS011;45044;41.572;24.730;2023-05-16T13:44:46;9.13;;;3.95;;
59273;SDS011;45044;41.572;24.730;2023-05-16T13:47:13;9.32;;;4.00;;
59273;SDS011;45044;41.572;24.730;2023-05-16T13:49:40;9.40;;;3.55;;
59273;SDS011;45044;41.572;24.730;2023-05-16T13:52:07;16.33;;;5.70;;
59273;SDS011;45044;41.572;24.730;2023-05-16T13:54:34;10.80;;;4.55;;
59273;SDS011;45044;41.572;24.730;2023-05-16T13:57:01;10.93;;;4.60;;
59273;SDS011;45044;41.572;24.730;2023-05-16T13:59:28;10.85;;;5.65;;
59273;SDS011;45044;41.572;24.730;2023-05-16T14:02:15;9.93;;;3.90;;
59273;SDS011;45044;41.572;24.730;2023-05-16T14:04:42;13.38;;;5.05;;
59273;SDS011;45044;41.572;24.730;2023-05-16T14:07:09;12.45;;;4.75;;
59273;SDS011;45044;41.572;24.730;2023-05-16T14:09:36;10.55;;;4.10;;
59273;SDS011;45044;41.572;24.730;2023-05-16T14:12:07;15.70;;;5.45;;
59273;SDS011;45044;41.572;24.730;2023-05-16T14:14:34;12.00;;;4.45;;
59273;SDS011;45044;41.572;24.730;2023-05-16T14:17:01;10.68;;;4.38;;
59273;SDS011;45044;41.572;24.730;2023-05-16T14:19:29;9.48;;;4.40;;
59273;SDS011;45044;41.572;24.730;2023-05-16T14:21:56;12.32;;;4.10;;
59273;SDS011;45044;41.572;24.730;2023-05-16T14:24:23;11.00;;;4.78;;
59273;SDS011;45044;41.572;24.730;2023-05-16T14:26:50;9.68;;;4.55;;
59273;SDS011;45044;41.572;24.730;2023-05-16T14:29:23;12.05;;;5.00;;
59273;SDS011;45044;41.572;24.730;2023-05-16T14:31:51;12.50;;;5.28;;
59273;SDS011;45044;41.572;24.730;2023-05-16T14:34:19;13.85;;;5.03;;
59273;SDS011;45044;41.572;24.730;2023-05-16T14:36:48;11.27;;;5.43;;
59273;SDS011;45044;41.572;24.730;2023-05-16T14:39:15;11.98;;;5.93;;
59273;SDS011;45044;41.572;24.730;2023-05-16T14:41:41;11.20;;;5.75;;
59273;SDS011;45044;41.572;24.730;2023-05-16T14:44:08;11.20;;;4.75;;
59273;SDS011;45044;41.572;24.730;2023-05-16T14:46:35;11.05;;;5.43;;
59273;SDS011;45044;41.572;24.730;2023-05-16T14:49:02;10.52;;;4.30;;
59273;SDS011;45044;41.572;24.730;2023-05-16T14:51:29;13.02;;;4.30;;
59273;SDS011;45044;41.572;24.730;2023-05-16T14:53:57;10.27;;;4.57;;
59273;SDS011;45044;41.572;24.730;2023-05-16T14:56:24;12.48;;;4.40;;
59273;SDS011;45044;41.572;24.730;2023-05-16T14:58:53;12.88;;;5.22;;
59273;SDS011;45044;41.572;24.730;2023-05-16T15:01:20;10.00;;;5.07;;
59273;SDS011;45044;41.572;24.730;2023-05-16T15:03:46;14.30;;;5.78;;
59273;SDS011;45044;41.572;24.730;2023-05-16T15:06:20;13.10;;;5.83;;
59273;SDS011;45044;41.572;24.730;2023-05-16T15:08:47;13.23;;;6.30;;
59273;SDS011;45044;41.572;24.730;2023-05-16T15:11:14;12.77;;;6.35;;